createdAt,value
2022-10-15T06:15:06.299Z,42.13
2022-10-15T06:17:33.236Z,43.07
2022-10-15T06:20:00.108Z,41.43
2022-10-15T06:22:27.084Z,42.47
2022-10-15T06:24:54.054Z,42.33
2022-10-15T06:27:21.535Z,42.60
2022-10-15T06:29:48.592Z,42.50
2022-10-15T06:32:15.531Z,42.53
2022-10-15T06:34:43.755Z,42.53
2022-10-15T06:37:10.750Z,41.73
2022-10-15T06:39:37.667Z,42.43
2022-10-15T06:42:04.519Z,40.27
2022-10-15T06:44:40.391Z,40.87
2022-10-15T06:47:07.691Z,40.73
2022-10-15T06:49:34.616Z,42.33
2022-10-15T06:52:03.815Z,41.70
2022-10-15T06:54:30.997Z,40.30
2022-10-15T06:56:57.991Z,41.10
2022-10-15T06:59:24.861Z,41.40
2022-10-15T07:01:53.945Z,39.67
2022-10-15T07:04:22.863Z,40.87
2022-10-15T07:06:49.750Z,39.20
2022-10-15T07:09:20.628Z,40.07
2022-10-15T07:11:47.533Z,40.03
2022-10-15T07:14:15.934Z,40.47
2022-10-15T07:16:42.780Z,38.50
2022-10-15T07:19:09.913Z,37.83
2022-10-15T07:21:36.810Z,38.03
2022-10-15T07:24:03.838Z,37.38
2022-10-15T07:26:31.505Z,39.88
2022-10-15T07:29:02.485Z,37.15
2022-10-15T07:31:29.434Z,36.58
2022-10-15T07:33:56.496Z,37.10
2022-10-15T07:36:23.373Z,37.60
2022-10-15T07:38:50.230Z,36.85
2022-10-15T07:41:17.148Z,36.38
2022-10-15T07:43:44.474Z,36.25
2022-10-15T07:46:11.999Z,38.03
2022-10-15T07:48:38.892Z,35.83
2022-10-15T07:51:07.199Z,36.80
2022-10-15T07:53:34.654Z,37.20
2022-10-15T07:56:04.266Z,37.13
2022-10-15T07:58:34.720Z,36.33
2022-10-15T08:01:09.931Z,37.10
2022-10-15T08:03:38.001Z,38.05
2022-10-15T08:06:06.907Z,37.40
2022-10-15T08:08:34.794Z,36.45
2022-10-15T08:11:13.891Z,37.97
2022-10-15T08:13:42.468Z,38.00
2022-10-15T08:16:13.983Z,38.67
2022-10-15T08:18:43.013Z,37.60
2022-10-15T08:21:11.402Z,38.03
2022-10-15T08:23:38.888Z,37.05
2022-10-15T08:26:06.004Z,37.40
2022-10-15T08:28:35.364Z,37.97
2022-10-15T13:24:06.000Z,18.33
2022-10-15T13:26:39.660Z,18.98
2022-10-15T13:29:14.278Z,18.92
2022-10-15T13:31:45.040Z,18.70
2022-10-15T13:34:31.871Z,18.63
2022-10-15T13:37:01.848Z,18.98
2022-10-15T13:39:36.600Z,19.02
2022-10-15T13:42:15.585Z,19.70
2022-10-15T13:44:44.432Z,19.70
2022-10-15T13:47:30.761Z,20.77
2022-10-15T13:50:32.691Z,20.13
2022-10-15T13:53:01.772Z,19.88
2022-10-15T13:55:33.503Z,19.85
2022-10-15T13:58:26.639Z,19.70
2022-10-15T14:01:01.813Z,19.52
2022-10-15T14:03:33.794Z,19.08
2022-10-15T14:06:29.824Z,18.50
2022-10-15T14:09:26.956Z,19.00
2022-10-15T14:11:57.957Z,20.13
2022-10-15T14:14:52.463Z,20.48
2022-10-15T14:17:39.942Z,19.50
2022-10-15T14:20:26.882Z,20.45
2022-10-15T14:22:54.733Z,19.90
2022-10-15T14:25:25.404Z,20.55
2022-10-15T14:27:52.856Z,19.73
2022-10-15T14:30:30.182Z,19.83
2022-10-15T14:32:57.315Z,20.40
2022-10-15T14:35:33.221Z,19.27
2022-10-15T14:38:06.375Z,20.23
2022-10-15T14:40:33.352Z,20.70
2022-10-15T14:43:14.963Z,19.80
2022-10-15T14:45:50.998Z,19.73
2022-10-15T14:48:28.219Z,19.92
2022-10-15T14:51:00.048Z,19.52
2022-10-15T14:53:31.103Z,20.27
2022-10-15T14:56:02.075Z,19.23
2022-10-15T14:58:30.000Z,19.95
2022-10-15T15:01:02.914Z,19.08
2022-10-15T15:03:42.073Z,19.20
2022-10-15T15:06:09.916Z,20.25
2022-10-15T15:08:36.932Z,20.20
2022-10-15T15:11:07.032Z,19.45
2022-10-15T15:13:39.793Z,18.77
2022-10-15T15:16:07.518Z,19.85
2022-10-15T15:18:34.650Z,19.90
2022-10-15T15:21:04.632Z,19.80
2022-10-15T15:23:32.724Z,19.27
2022-10-15T15:25:59.906Z,19.95
2022-10-15T15:28:29.322Z,19.15
2022-10-15T15:31:06.405Z,20.02
2022-10-15T15:33:34.500Z,20.10
2022-10-15T15:36:13.101Z,19.63
2022-10-15T15:38:40.455Z,19.90
2022-10-15T15:41:18.962Z,20.20
2022-10-15T15:43:46.437Z,20.42
2022-10-15T15:46:14.014Z,19.23
2022-10-15T15:48:40.888Z,19.77
2022-10-15T15:51:18.931Z,19.63
2022-10-15T15:53:45.896Z,20.17
2022-10-15T15:56:12.845Z,20.55
2022-10-15T15:58:39.700Z,19.85
2022-10-15T16:01:08.020Z,20.25
2022-10-15T16:03:37.528Z,19.95
2022-10-15T16:06:08.264Z,21.50
2022-10-15T16:08:37.179Z,20.50
2022-10-15T16:11:05.430Z,21.33
2022-10-15T16:13:32.744Z,20.95
2022-10-15T16:15:59.665Z,20.35
2022-10-15T16:18:26.572Z,21.63
2022-10-15T16:20:53.606Z,20.35
2022-10-15T16:23:20.468Z,20.75
2022-10-15T16:25:47.314Z,20.73
2022-10-15T16:28:14.230Z,21.27
2022-10-15T16:30:42.499Z,20.83
2022-10-15T16:33:09.462Z,22.23
2022-10-15T16:35:36.523Z,22.08
2022-10-15T16:38:03.507Z,21.98
2022-10-15T16:40:30.339Z,22.83
2022-10-15T16:42:57.397Z,22.63
2022-10-15T16:45:24.440Z,22.25
2022-10-15T16:47:53.343Z,22.75
2022-10-15T16:50:20.272Z,23.60
2022-10-15T16:52:47.155Z,24.13
2022-10-15T16:55:14.111Z,23.73
2022-10-15T16:57:41.974Z,23.63
2022-10-15T17:00:10.110Z,23.10
2022-10-15T17:02:37.226Z,23.20
2022-10-15T17:05:04.447Z,23.23
2022-10-15T17:07:31.691Z,23.17
2022-10-15T17:09:58.744Z,23.20
2022-10-15T17:12:25.925Z,24.23
2022-10-15T17:14:53.163Z,24.88
2022-10-15T17:17:20.133Z,23.67
2022-10-15T17:19:47.280Z,24.35
2022-10-15T17:22:14.197Z,25.30
2022-10-15T17:24:41.115Z,25.55
2022-10-15T17:27:07.987Z,25.45
2022-10-15T17:29:35.000Z,25.52
2022-10-15T17:32:03.081Z,27.05
2022-10-15T17:34:31.386Z,26.10
2022-10-15T17:36:58.323Z,27.38
2022-10-15T17:39:25.285Z,28.02
2022-10-15T17:41:52.554Z,27.42
2022-10-15T17:44:19.988Z,26.90
2022-10-15T17:49:24.987Z,27.00
2022-10-15T17:51:51.834Z,26.80
2022-10-15T17:54:18.888Z,26.55
2022-10-15T17:56:46.153Z,27.25
2022-10-15T17:59:13.296Z,27.35
2022-10-15T18:01:59.534Z,27.70
2022-10-15T18:04:29.471Z,27.38
2022-10-15T18:06:56.592Z,28.17
2022-10-15T18:09:24.851Z,27.02
2022-10-15T18:11:55.627Z,27.73
2022-10-15T18:14:28.461Z,27.88
2022-10-15T18:16:55.585Z,28.00
2022-10-15T18:19:22.634Z,28.55
2022-10-15T18:21:50.095Z,28.05
2022-10-15T18:24:21.653Z,28.70
2022-10-15T18:26:50.020Z,29.45
2022-10-15T18:29:17.453Z,27.45
2022-10-15T18:31:46.954Z,28.05
2022-10-15T18:34:14.234Z,29.80
2022-10-15T18:36:43.685Z,29.13
2022-10-15T18:39:11.206Z,28.73
2022-10-15T18:41:40.134Z,28.52
2022-10-15T18:44:13.200Z,28.92
2022-10-15T18:46:42.237Z,29.48
2022-10-15T18:49:09.388Z,29.33
2022-10-15T18:51:36.257Z,28.65
2022-10-15T18:54:03.572Z,28.17
2022-10-15T18:56:30.479Z,28.13
2022-10-15T18:58:57.347Z,27.85
2022-10-15T19:01:37.438Z,27.42
2022-10-15T19:04:23.571Z,28.33
2022-10-15T19:06:52.784Z,28.05
2022-10-15T19:09:22.456Z,26.88
2022-10-15T19:11:51.858Z,26.88
2022-10-15T19:14:19.125Z,26.48
2022-10-15T19:16:46.895Z,25.95
2022-10-15T19:19:18.669Z,26.83
2022-10-15T19:21:47.340Z,26.65
2022-10-15T19:24:15.896Z,26.85
2022-10-15T19:26:43.222Z,27.80
2022-10-15T19:29:10.257Z,26.33
2022-10-15T19:31:40.676Z,26.17
2022-10-15T19:34:08.331Z,25.92
2022-10-15T19:36:41.308Z,26.23
2022-10-15T19:39:11.903Z,25.98
2022-10-15T19:41:40.315Z,26.17
2022-10-15T19:44:08.286Z,26.80
2022-10-15T19:46:38.418Z,26.17
2022-10-15T19:49:07.979Z,26.27
2022-10-15T19:51:35.183Z,25.70
2022-10-15T19:54:02.345Z,26.40
2022-10-15T19:56:33.034Z,26.20
2022-10-15T19:59:02.095Z,26.02
2022-10-15T20:01:30.434Z,25.88
2022-10-15T20:04:03.154Z,25.13
2022-10-15T20:06:33.505Z,25.58
2022-10-15T20:09:02.227Z,24.67
2022-10-15T20:11:29.244Z,25.42
2022-10-15T20:13:56.550Z,24.98
2022-10-15T20:16:24.788Z,25.33
2022-10-15T20:18:52.666Z,25.73
2022-10-15T20:21:19.633Z,24.80
2022-10-15T20:23:47.840Z,26.05
2022-10-15T20:26:16.376Z,25.92
2022-10-15T20:28:44.755Z,25.90
2022-10-15T20:31:28.263Z,25.30
2022-10-15T20:33:55.363Z,24.67
2022-10-15T20:36:24.327Z,25.02
2022-10-15T20:38:51.857Z,24.85
2022-10-15T20:41:19.255Z,25.05
2022-10-15T20:43:47.286Z,25.48
2022-10-15T20:46:19.687Z,24.15
2022-10-15T20:48:47.011Z,24.00
2022-10-15T20:51:17.633Z,23.55
2022-10-15T20:53:45.523Z,23.77
2022-10-15T20:56:13.280Z,23.15
2022-10-15T20:58:40.275Z,23.38
2022-10-15T21:01:07.878Z,23.05
2022-10-15T21:03:34.924Z,23.27
2022-10-15T21:06:01.904Z,22.60
2022-10-15T21:08:28.915Z,23.15
2022-10-15T21:11:06.940Z,21.85
2022-10-15T21:13:34.268Z,21.95
2022-10-15T21:16:03.006Z,22.20
2022-10-15T21:18:30.258Z,21.10
2022-10-15T21:21:07.616Z,21.10
2022-10-15T21:23:35.165Z,21.02
2022-10-15T21:26:06.509Z,19.67
2022-10-15T21:28:34.759Z,20.48
2022-10-15T21:31:07.475Z,20.25
2022-10-15T21:33:36.102Z,19.92
2022-10-15T21:36:23.032Z,19.70
2022-10-15T21:38:56.713Z,19.75
2022-10-15T21:41:24.807Z,18.52
2022-10-15T21:43:52.466Z,19.20
2022-10-15T21:46:19.391Z,19.40
2022-10-15T21:48:46.373Z,18.95
2022-10-15T21:51:19.274Z,19.40
2022-10-15T21:53:46.804Z,18.20
2022-10-15T21:56:14.400Z,18.42
2022-10-15T21:58:41.832Z,18.55
2022-10-15T22:01:15.925Z,17.95
2022-10-15T22:03:45.769Z,17.95
2022-10-15T22:06:13.190Z,17.92
2022-10-15T22:08:40.202Z,17.10
2022-10-15T22:11:11.735Z,17.80
2022-10-15T22:13:39.160Z,17.95
2022-10-15T22:16:06.662Z,17.45
2022-10-15T22:18:33.781Z,17.42
2022-10-15T22:21:10.569Z,17.45
2022-10-15T22:23:37.479Z,16.65
2022-10-15T22:26:04.331Z,17.35
2022-10-15T22:28:31.169Z,16.67
2022-10-15T22:31:03.601Z,16.42
2022-10-15T22:33:30.533Z,16.55
2022-10-15T22:36:05.939Z,16.60
2022-10-15T22:38:33.028Z,16.67
2022-10-15T22:41:01.444Z,17.70
2022-10-15T22:43:28.268Z,16.42
2022-10-15T22:45:59.907Z,17.83
2022-10-15T22:48:27.246Z,17.17
2022-10-15T22:50:58.550Z,17.35
2022-10-15T22:53:26.211Z,17.08
2022-10-15T22:55:57.174Z,17.90
2022-10-15T22:58:25.072Z,17.35
2022-10-15T23:00:52.548Z,16.88
2022-10-15T23:03:20.201Z,17.80
2022-10-15T23:05:54.469Z,16.90
2022-10-15T23:08:21.957Z,17.80
2022-10-15T23:10:49.268Z,17.17
2022-10-15T23:13:16.327Z,16.92
2022-10-15T23:15:43.208Z,18.02
2022-10-15T23:18:10.052Z,17.63
2022-10-15T23:20:40.395Z,17.10
